sensor_id;sensor_type;location;lat;lon;timestamp;temperature;humidity
13589;DHT22;6865;52.552;13.434;2023-12-14T00:01:45;4.70;99.90
13589;DHT22;6865;52.552;13.434;2023-12-14T00:04:12;4.70;99.90
13589;DHT22;6865;52.552;13.434;2023-12-14T00:06:39;4.70;99.90
13589;DHT22;6865;52.552;13.434;2023-12-14T00:09:06;4.70;99.90
13589;DHT22;6865;52.552;13.434;2023-12-14T00:11:38;4.60;99.90
13589;DHT22;6865;52.552;13.434;2023-12-14T00:14:06;4.70;99.90
13589;DHT22;6865;52.552;13.434;2023-12-14T00:16:33;4.60;99.90
13589;DHT22;6865;52.552;13.434;2023-12-14T00:18:59;4.70;99.90
13589;DHT22;6865;52.552;13.434;2023-12-14T00:21:26;4.60;99.90
13589;DHT22;6865;52.552;13.434;2023-12-14T00:23:53;4.60;99.90
13589;DHT22;6865;52.552;13.434;2023-12-14T00:26:19;4.60;99.90
13589;DHT22;6865;52.552;13.434;2023-12-14T00:28:46;4.60;99.90
13589;DHT22;6865;52.552;13.434;2023-12-14T00:31:13;4.60;99.90
13589;DHT22;6865;52.552;13.434;2023-12-14T00:33:40;4.30;99.90
13589;DHT22;6865;52.552;13.434;2023-12-14T00:36:07;4.00;99.90
13589;DHT22;6865;52.552;13.434;2023-12-14T00:38:34;4.50;99.90
13589;DHT22;6865;52.552;13.434;2023-12-14T00:41:01;4.10;99.90
13589;DHT22;6865;52.552;13.434;2023-12-14T00:43:27;4.50;99.90
13589;DHT22;6865;52.552;13.434;2023-12-14T00:45:54;5.20;99.90
13589;DHT22;6865;52.552;13.434;2023-12-14T00:48:21;4.50;99.90
13589;DHT22;6865;52.552;13.434;2023-12-14T00:50:48;4.30;99.90
13589;DHT22;6865;52.552;13.434;2023-12-14T00:53:14;4.70;99.90
13589;DHT22;6865;52.552;13.434;2023-12-14T00:55:41;4.40;99.90
13589;DHT22;6865;52.552;13.434;2023-12-14T00:58:08;4.30;99.90
13589;DHT22;6865;52.552;13.434;2023-12-14T01:00:34;4.30;99.90
13589;DHT22;6865;52.552;13.434;2023-12-14T01:03:01;4.30;99.90
13589;DHT22;6865;52.552;13.434;2023-12-14T01:05:27;4.30;99.90
13589;DHT22;6865;52.552;13.434;2023-12-14T01:07:54;4.20;99.90
13589;DHT22;6865;52.552;13.434;2023-12-14T01:10:21;4.10;99.90
13589;DHT22;6865;52.552;13.434;2023-12-14T01:12:48;4.20;99.90
13589;DHT22;6865;52.552;13.434;2023-12-14T01:15:15;4.10;99.90
13589;DHT22;6865;52.552;13.434;2023-12-14T01:17:42;4.10;99.90
13589;DHT22;6865;52.552;13.434;2023-12-14T01:20:09;4.00;99.90
13589;DHT22;6865;52.552;13.434;2023-12-14T01:22:36;4.00;99.90
13589;DHT22;6865;52.552;13.434;2023-12-14T01:25:04;4.00;99.90
13589;DHT22;6865;52.552;13.434;2023-12-14T01:27:30;4.00;99.90
13589;DHT22;6865;52.552;13.434;2023-12-14T01:29:57;4.00;99.90
13589;DHT22;6865;52.552;13.434;2023-12-14T01:32:24;4.00;99.90
13589;DHT22;6865;52.552;13.434;2023-12-14T01:34:50;3.90;99.90
13589;DHT22;6865;52.552;13.434;2023-12-14T01:37:17;3.90;99.90
13589;DHT22;6865;52.552;13.434;2023-12-14T01:39:44;3.90;99.90
13589;DHT22;6865;52.552;13.434;2023-12-14T01:42:10;3.90;99.90
13589;DHT22;6865;52.552;13.434;2023-12-14T01:44:37;3.90;99.90
13589;DHT22;6865;52.552;13.434;2023-12-14T01:47:04;3.50;99.90
13589;DHT22;6865;52.552;13.434;2023-12-14T01:49:30;3.30;99.90
13589;DHT22;6865;52.552;13.434;2023-12-14T01:51:57;3.90;99.90
13589;DHT22;6865;52.552;13.434;2023-12-14T01:54:24;3.80;99.90
13589;DHT22;6865;52.552;13.434;2023-12-14T01:56:50;3.80;99.90
13589;DHT22;6865;52.552;13.434;2023-12-14T01:59:17;3.80;99.90
13589;DHT22;6865;52.552;13.434;2023-12-14T02:01:45;3.90;99.90
13589;DHT22;6865;52.552;13.434;2023-12-14T02:04:13;3.70;99.90
13589;DHT22;6865;52.552;13.434;2023-12-14T02:06:41;3.70;99.90
13589;DHT22;6865;52.552;13.434;2023-12-14T02:09:08;3.70;99.90
13589;DHT22;6865;52.552;13.434;2023-12-14T02:11:34;3.70;99.90
13589;DHT22;6865;52.552;13.434;2023-12-14T02:14:06;3.70;99.90
13589;DHT22;6865;52.552;13.434;2023-12-14T02:16:33;3.70;99.90
13589;DHT22;6865;52.552;13.434;2023-12-14T02:18:59;3.70;99.90
13589;DHT22;6865;52.552;13.434;2023-12-14T02:21:26;3.70;99.90
13589;DHT22;6865;52.552;13.434;2023-12-14T02:23:53;3.70;99.90
13589;DHT22;6865;52.552;13.434;2023-12-14T02:26:19;3.70;99.90
13589;DHT22;6865;52.552;13.434;2023-12-14T02:28:46;3.70;99.90
13589;DHT22;6865;52.552;13.434;2023-12-14T02:31:13;3.80;99.90
13589;DHT22;6865;52.552;13.434;2023-12-14T02:33:40;3.70;99.90
13589;DHT22;6865;52.552;13.434;2023-12-14T02:36:06;3.70;99.90
13589;DHT22;6865;52.552;13.434;2023-12-14T02:38:33;3.70;99.90
13589;DHT22;6865;52.552;13.434;2023-12-14T02:41:00;3.70;99.90
13589;DHT22;6865;52.552;13.434;2023-12-14T02:43:27;3.70;99.90
13589;DHT22;6865;52.552;13.434;2023-12-14T02:45:53;3.70;99.90
13589;DHT22;6865;52.552;13.434;2023-12-14T02:48:22;3.70;99.90
13589;DHT22;6865;52.552;13.434;2023-12-14T02:50:48;3.70;99.90
13589;DHT22;6865;52.552;13.434;2023-12-14T02:53:15;3.70;99.90
13589;DHT22;6865;52.552;13.434;2023-12-14T02:55:43;3.70;99.90
13589;DHT22;6865;52.552;13.434;2023-12-14T02:58:09;3.60;99.90
13589;DHT22;6865;52.552;13.434;2023-12-14T03:00:36;3.70;99.90
13589;DHT22;6865;52.552;13.434;2023-12-14T03:03:03;3.70;99.90
13589;DHT22;6865;52.552;13.434;2023-12-14T03:05:29;3.80;99.90
13589;DHT22;6865;52.552;13.434;2023-12-14T03:07:56;3.70;99.90
13589;DHT22;6865;52.552;13.434;2023-12-14T03:10:23;3.70;99.90
13589;DHT22;6865;52.552;13.434;2023-12-14T03:12:49;3.70;99.90
13589;DHT22;6865;52.552;13.434;2023-12-14T03:15:18;3.70;99.90
13589;DHT22;6865;52.552;13.434;2023-12-14T03:17:45;3.80;99.90
13589;DHT22;6865;52.552;13.434;2023-12-14T03:20:12;3.70;99.90
13589;DHT22;6865;52.552;13.434;2023-12-14T03:22:40;3.70;99.90
13589;DHT22;6865;52.552;13.434;2023-12-14T03:25:09;3.70;99.90
13589;DHT22;6865;52.552;13.434;2023-12-14T03:27:36;3.70;99.90
13589;DHT22;6865;52.552;13.434;2023-12-14T03:30:03;3.70;99.90
13589;DHT22;6865;52.552;13.434;2023-12-14T03:32:34;3.70;99.90
13589;DHT22;6865;52.552;13.434;2023-12-14T03:35:02;3.70;99.90
13589;DHT22;6865;52.552;13.434;2023-12-14T03:37:29;3.70;99.90
13589;DHT22;6865;52.552;13.434;2023-12-14T03:39:55;3.70;99.90
13589;DHT22;6865;52.552;13.434;2023-12-14T03:42:22;3.70;99.90
13589;DHT22;6865;52.552;13.434;2023-12-14T03:44:49;3.70;99.90
13589;DHT22;6865;52.552;13.434;2023-12-14T03:47:15;3.70;99.90
13589;DHT22;6865;52.552;13.434;2023-12-14T03:49:42;3.30;99.90
13589;DHT22;6865;52.552;13.434;2023-12-14T03:52:09;3.70;99.90
13589;DHT22;6865;52.552;13.434;2023-12-14T03:54:36;3.70;99.90
13589;DHT22;6865;52.552;13.434;2023-12-14T03:57:02;3.70;99.90
13589;DHT22;6865;52.552;13.434;2023-12-14T03:59:29;3.70;99.90
13589;DHT22;6865;52.552;13.434;2023-12-14T04:01:58;3.80;99.90
13589;DHT22;6865;52.552;13.434;2023-12-14T04:04:25;3.80;99.90
13589;DHT22;6865;52.552;13.434;2023-12-14T04:06:52;3.80;99.90
13589;DHT22;6865;52.552;13.434;2023-12-14T04:09:18;4.00;99.90
13589;DHT22;6865;52.552;13.434;2023-12-14T04:11:45;3.70;99.90
13589;DHT22;6865;52.552;13.434;2023-12-14T04:14:12;3.70;99.90
13589;DHT22;6865;52.552;13.434;2023-12-14T04:16:39;3.70;99.90
13589;DHT22;6865;52.552;13.434;2023-12-14T04:19:06;3.70;99.90
13589;DHT22;6865;52.552;13.434;2023-12-14T04:21:36;3.70;99.90
13589;DHT22;6865;52.552;13.434;2023-12-14T04:24:04;3.70;99.90
13589;DHT22;6865;52.552;13.434;2023-12-14T04:26:31;3.70;99.90
13589;DHT22;6865;52.552;13.434;2023-12-14T04:28:58;3.70;99.90
13589;DHT22;6865;52.552;13.434;2023-12-14T04:31:25;3.80;99.90
13589;DHT22;6865;52.552;13.434;2023-12-14T04:33:51;3.30;99.90
13589;DHT22;6865;52.552;13.434;2023-12-14T04:36:18;3.80;99.90
13589;DHT22;6865;52.552;13.434;2023-12-14T04:38:45;3.70;99.90
13589;DHT22;6865;52.552;13.434;2023-12-14T04:41:13;3.70;99.90
13589;DHT22;6865;52.552;13.434;2023-12-14T04:43:40;3.70;99.90
13589;DHT22;6865;52.552;13.434;2023-12-14T04:46:07;3.80;99.90
13589;DHT22;6865;52.552;13.434;2023-12-14T04:48:33;3.70;99.90
13589;DHT22;6865;52.552;13.434;2023-12-14T04:51:00;3.20;99.90
13589;DHT22;6865;52.552;13.434;2023-12-14T04:53:27;3.70;99.90
13589;DHT22;6865;52.552;13.434;2023-12-14T04:55:54;3.70;99.90
13589;DHT22;6865;52.552;13.434;2023-12-14T04:58:21;3.70;99.90
13589;DHT22;6865;52.552;13.434;2023-12-14T05:00:47;3.70;99.90
13589;DHT22;6865;52.552;13.434;2023-12-14T05:03:14;3.70;99.90
13589;DHT22;6865;52.552;13.434;2023-12-14T05:05:42;3.80;99.90
13589;DHT22;6865;52.552;13.434;2023-12-14T05:08:08;3.80;99.90
13589;DHT22;6865;52.552;13.434;2023-12-14T05:10:35;3.70;99.90
13589;DHT22;6865;52.552;13.434;2023-12-14T05:13:03;3.70;99.90
13589;DHT22;6865;52.552;13.434;2023-12-14T05:15:29;3.80;99.90
13589;DHT22;6865;52.552;13.434;2023-12-14T05:17:57;3.90;99.90
13589;DHT22;6865;52.552;13.434;2023-12-14T05:20:24;3.80;99.90
13589;DHT22;6865;52.552;13.434;2023-12-14T05:22:50;3.80;99.90
13589;DHT22;6865;52.552;13.434;2023-12-14T05:25:17;3.90;99.90
13589;DHT22;6865;52.552;13.434;2023-12-14T05:27:44;3.80;99.90
13589;DHT22;6865;52.552;13.434;2023-12-14T05:30:11;3.80;99.90
13589;DHT22;6865;52.552;13.434;2023-12-14T05:32:38;3.80;99.90
13589;DHT22;6865;52.552;13.434;2023-12-14T05:35:05;4.10;99.90
13589;DHT22;6865;52.552;13.434;2023-12-14T05:37:32;3.80;99.90
13589;DHT22;6865;52.552;13.434;2023-12-14T05:39:59;3.80;99.90
13589;DHT22;6865;52.552;13.434;2023-12-14T05:42:26;3.80;99.90
13589;DHT22;6865;52.552;13.434;2023-12-14T05:44:52;3.80;99.90
13589;DHT22;6865;52.552;13.434;2023-12-14T05:47:19;3.80;99.90
13589;DHT22;6865;52.552;13.434;2023-12-14T05:49:46;3.80;99.90
13589;DHT22;6865;52.552;13.434;2023-12-14T05:52:13;3.80;99.90
13589;DHT22;6865;52.552;13.434;2023-12-14T05:54:40;3.80;99.90
13589;DHT22;6865;52.552;13.434;2023-12-14T05:57:06;3.80;99.90
13589;DHT22;6865;52.552;13.434;2023-12-14T05:59:33;3.80;99.90
13589;DHT22;6865;52.552;13.434;2023-12-14T06:02:00;3.80;99.90
13589;DHT22;6865;52.552;13.434;2023-12-14T06:04:27;3.80;99.90
13589;DHT22;6865;52.552;13.434;2023-12-14T06:06:54;3.80;99.90
13589;DHT22;6865;52.552;13.434;2023-12-14T06:09:21;3.60;99.90
13589;DHT22;6865;52.552;13.434;2023-12-14T06:11:51;3.50;99.90
13589;DHT22;6865;52.552;13.434;2023-12-14T06:14:18;3.80;99.90
13589;DHT22;6865;52.552;13.434;2023-12-14T06:16:45;3.30;99.90
13589;DHT22;6865;52.552;13.434;2023-12-14T06:19:12;3.90;99.90
13589;DHT22;6865;52.552;13.434;2023-12-14T06:21:40;3.90;99.90
13589;DHT22;6865;52.552;13.434;2023-12-14T06:24:07;3.90;99.90
13589;DHT22;6865;52.552;13.434;2023-12-14T06:26:33;3.90;99.90
13589;DHT22;6865;52.552;13.434;2023-12-14T06:29:00;3.90;99.90
13589;DHT22;6865;52.552;13.434;2023-12-14T06:31:27;4.00;99.90
13589;DHT22;6865;52.552;13.434;2023-12-14T06:33:53;3.90;99.90
13589;DHT22;6865;52.552;13.434;2023-12-14T06:36:24;3.90;99.90
13589;DHT22;6865;52.552;13.434;2023-12-14T06:38:59;3.90;99.90
13589;DHT22;6865;52.552;13.434;2023-12-14T06:41:27;3.90;99.90
13589;DHT22;6865;52.552;13.434;2023-12-14T06:43:55;3.90;99.90
13589;DHT22;6865;52.552;13.434;2023-12-14T06:46:21;4.00;99.90
13589;DHT22;6865;52.552;13.434;2023-12-14T06:48:48;4.00;99.90
13589;DHT22;6865;52.552;13.434;2023-12-14T06:51:15;4.00;99.90
13589;DHT22;6865;52.552;13.434;2023-12-14T06:53:43;3.90;99.90
13589;DHT22;6865;52.552;13.434;2023-12-14T06:56:10;3.90;99.90
13589;DHT22;6865;52.552;13.434;2023-12-14T06:58:42;3.90;99.90
13589;DHT22;6865;52.552;13.434;2023-12-14T07:01:13;3.90;99.90
13589;DHT22;6865;52.552;13.434;2023-12-14T07:03:41;3.90;99.90
13589;DHT22;6865;52.552;13.434;2023-12-14T07:06:12;3.90;99.90
13589;DHT22;6865;52.552;13.434;2023-12-14T07:08:39;4.00;99.90
13589;DHT22;6865;52.552;13.434;2023-12-14T07:11:10;3.90;99.90
13589;DHT22;6865;52.552;13.434;2023-12-14T07:13:38;4.00;99.90
13589;DHT22;6865;52.552;13.434;2023-12-14T07:16:06;4.00;99.90
13589;DHT22;6865;52.552;13.434;2023-12-14T07:18:37;4.00;99.90
13589;DHT22;6865;52.552;13.434;2023-12-14T07:21:05;4.00;99.90
13589;DHT22;6865;52.552;13.434;2023-12-14T07:23:32;4.00;99.90
13589;DHT22;6865;52.552;13.434;2023-12-14T07:25:59;4.00;99.90
13589;DHT22;6865;52.552;13.434;2023-12-14T07:28:29;4.00;99.90
13589;DHT22;6865;52.552;13.434;2023-12-14T07:30:56;4.00;99.90
13589;DHT22;6865;52.552;13.434;2023-12-14T07:33:23;4.00;99.90
13589;DHT22;6865;52.552;13.434;2023-12-14T07:35:53;4.00;99.90
13589;DHT22;6865;52.552;13.434;2023-12-14T07:38:20;4.00;99.90
13589;DHT22;6865;52.552;13.434;2023-12-14T07:40:46;4.00;99.90
13589;DHT22;6865;52.552;13.434;2023-12-14T07:43:13;4.00;99.90
13589;DHT22;6865;52.552;13.434;2023-12-14T07:45:40;4.00;99.90
13589;DHT22;6865;52.552;13.434;2023-12-14T07:48:07;4.00;99.90
13589;DHT22;6865;52.552;13.434;2023-12-14T07:50:34;3.90;99.90
13589;DHT22;6865;52.552;13.434;2023-12-14T07:53:01;3.90;99.90
13589;DHT22;6865;52.552;13.434;2023-12-14T07:55:28;3.90;99.90
13589;DHT22;6865;52.552;13.434;2023-12-14T07:57:55;3.90;99.90
13589;DHT22;6865;52.552;13.434;2023-12-14T08:00:22;3.90;99.90
13589;DHT22;6865;52.552;13.434;2023-12-14T08:02:49;3.90;99.90
13589;DHT22;6865;52.552;13.434;2023-12-14T08:05:16;4.00;99.90
13589;DHT22;6865;52.552;13.434;2023-12-14T08:07:42;4.00;99.90
13589;DHT22;6865;52.552;13.434;2023-12-14T08:10:09;4.00;99.90
13589;DHT22;6865;52.552;13.434;2023-12-14T08:12:36;4.10;99.90
13589;DHT22;6865;52.552;13.434;2023-12-14T08:15:04;4.10;99.90
13589;DHT22;6865;52.552;13.434;2023-12-14T08:17:31;4.10;99.90
13589;DHT22;6865;52.552;13.434;2023-12-14T08:19:58;4.10;99.90
13589;DHT22;6865;52.552;13.434;2023-12-14T08:22:25;4.10;99.90
13589;DHT22;6865;52.552;13.434;2023-12-14T08:24:51;4.10;99.90
13589;DHT22;6865;52.552;13.434;2023-12-14T08:27:18;4.50;99.90
13589;DHT22;6865;52.552;13.434;2023-12-14T08:29:45;4.10;99.90
13589;DHT22;6865;52.552;13.434;2023-12-14T08:32:12;4.10;99.90
13589;DHT22;6865;52.552;13.434;2023-12-14T08:34:40;4.10;99.90
13589;DHT22;6865;52.552;13.434;2023-12-14T08:37:07;4.10;99.90
13589;DHT22;6865;52.552;13.434;2023-12-14T08:39:34;4.10;99.90
13589;DHT22;6865;52.552;13.434;2023-12-14T08:42:01;4.10;99.90
13589;DHT22;6865;52.552;13.434;2023-12-14T08:44:28;4.10;99.90
13589;DHT22;6865;52.552;13.434;2023-12-14T08:46:54;4.10;99.90
13589;DHT22;6865;52.552;13.434;2023-12-14T08:49:21;4.10;99.90
13589;DHT22;6865;52.552;13.434;2023-12-14T08:51:50;4.20;99.90
13589;DHT22;6865;52.552;13.434;2023-12-14T08:54:16;4.20;99.90
13589;DHT22;6865;52.552;13.434;2023-12-14T08:56:43;4.20;99.90
13589;DHT22;6865;52.552;13.434;2023-12-14T08:59:11;4.20;99.90
13589;DHT22;6865;52.552;13.434;2023-12-14T09:01:38;4.20;99.90
13589;DHT22;6865;52.552;13.434;2023-12-14T09:04:05;4.30;99.90
13589;DHT22;6865;52.552;13.434;2023-12-14T09:06:32;4.20;99.90
13589;DHT22;6865;52.552;13.434;2023-12-14T09:08:59;4.30;99.90
13589;DHT22;6865;52.552;13.434;2023-12-14T09:11:26;4.30;99.90
13589;DHT22;6865;52.552;13.434;2023-12-14T09:13:52;4.30;99.90
13589;DHT22;6865;52.552;13.434;2023-12-14T09:16:19;4.30;99.90
13589;DHT22;6865;52.552;13.434;2023-12-14T09:18:46;4.30;99.90
13589;DHT22;6865;52.552;13.434;2023-12-14T09:21:13;4.20;99.90
13589;DHT22;6865;52.552;13.434;2023-12-14T09:23:41;4.40;99.90
13589;DHT22;6865;52.552;13.434;2023-12-14T09:26:08;4.60;99.90
13589;DHT22;6865;52.552;13.434;2023-12-14T09:28:34;4.30;99.90
13589;DHT22;6865;52.552;13.434;2023-12-14T09:31:01;4.40;99.90
13589;DHT22;6865;52.552;13.434;2023-12-14T09:33:30;4.30;99.90
13589;DHT22;6865;52.552;13.434;2023-12-14T09:35:57;4.30;99.90
13589;DHT22;6865;52.552;13.434;2023-12-14T09:38:24;4.60;99.90
13589;DHT22;6865;52.552;13.434;2023-12-14T09:40:51;4.30;99.90
13589;DHT22;6865;52.552;13.434;2023-12-14T09:43:17;3.90;99.90
13589;DHT22;6865;52.552;13.434;2023-12-14T09:45:45;4.30;99.90
13589;DHT22;6865;52.552;13.434;2023-12-14T09:48:12;4.30;99.90
13589;DHT22;6865;52.552;13.434;2023-12-14T09:50:40;4.20;99.90
13589;DHT22;6865;52.552;13.434;2023-12-14T09:53:07;4.30;99.90
13589;DHT22;6865;52.552;13.434;2023-12-14T09:55:35;4.30;99.90
13589;DHT22;6865;52.552;13.434;2023-12-14T09:58:02;4.30;99.90
13589;DHT22;6865;52.552;13.434;2023-12-14T10:00:36;4.30;99.90
13589;DHT22;6865;52.552;13.434;2023-12-14T10:03:26;4.30;99.90
13589;DHT22;6865;52.552;13.434;2023-12-14T10:05:55;4.30;99.90
13589;DHT22;6865;52.552;13.434;2023-12-14T10:08:22;4.30;99.90
13589;DHT22;6865;52.552;13.434;2023-12-14T10:10:52;4.40;99.90
13589;DHT22;6865;52.552;13.434;2023-12-14T10:13:21;4.50;99.90
13589;DHT22;6865;52.552;13.434;2023-12-14T10:15:48;4.50;99.90
13589;DHT22;6865;52.552;13.434;2023-12-14T10:18:22;4.50;99.90
13589;DHT22;6865;52.552;13.434;2023-12-14T10:20:50;4.50;99.90
13589;DHT22;6865;52.552;13.434;2023-12-14T10:23:17;4.60;99.90
13589;DHT22;6865;52.552;13.434;2023-12-14T10:25:45;4.60;99.90
13589;DHT22;6865;52.552;13.434;2023-12-14T10:28:13;4.60;99.90
13589;DHT22;6865;52.552;13.434;2023-12-14T10:30:40;4.60;99.90
13589;DHT22;6865;52.552;13.434;2023-12-14T10:33:07;4.60;99.90
13589;DHT22;6865;52.552;13.434;2023-12-14T10:35:35;4.60;99.90
13589;DHT22;6865;52.552;13.434;2023-12-14T10:38:04;4.70;99.90
13589;DHT22;6865;52.552;13.434;2023-12-14T10:40:32;4.70;99.90
13589;DHT22;6865;52.552;13.434;2023-12-14T10:42:59;4.70;99.90
13589;DHT22;6865;52.552;13.434;2023-12-14T10:45:30;4.70;99.90
13589;DHT22;6865;52.552;13.434;2023-12-14T10:48:00;4.80;99.90
13589;DHT22;6865;52.552;13.434;2023-12-14T10:50:29;4.70;99.90
13589;DHT22;6865;52.552;13.434;2023-12-14T10:53:00;4.70;99.90
13589;DHT22;6865;52.552;13.434;2023-12-14T10:55:44;4.20;99.90
13589;DHT22;6865;52.552;13.434;2023-12-14T10:58:11;4.70;99.90
13589;DHT22;6865;52.552;13.434;2023-12-14T11:00:39;4.70;99.90
13589;DHT22;6865;52.552;13.434;2023-12-14T11:03:06;4.70;99.90
13589;DHT22;6865;52.552;13.434;2023-12-14T11:05:34;4.70;99.90
13589;DHT22;6865;52.552;13.434;2023-12-14T11:08:03;4.70;99.90
13589;DHT22;6865;52.552;13.434;2023-12-14T11:10:43;4.70;99.90
13589;DHT22;6865;52.552;13.434;2023-12-14T11:13:19;4.80;99.90
13589;DHT22;6865;52.552;13.434;2023-12-14T11:15:51;4.80;99.90
13589;DHT22;6865;52.552;13.434;2023-12-14T11:25:53;4.90;99.90
13589;DHT22;6865;52.552;13.434;2023-12-14T11:28:25;4.90;99.90
13589;DHT22;6865;52.552;13.434;2023-12-14T11:30:54;4.90;99.90
13589;DHT22;6865;52.552;13.434;2023-12-14T11:33:22;5.00;99.90
13589;DHT22;6865;52.552;13.434;2023-12-14T11:35:51;5.00;99.90
13589;DHT22;6865;52.552;13.434;2023-12-14T11:38:19;5.00;99.90
13589;DHT22;6865;52.552;13.434;2023-12-14T11:40:48;4.90;99.90
13589;DHT22;6865;52.552;13.434;2023-12-14T11:43:18;5.00;99.90
13589;DHT22;6865;52.552;13.434;2023-12-14T11:45:47;5.00;99.90
13589;DHT22;6865;52.552;13.434;2023-12-14T11:48:15;5.00;99.90
13589;DHT22;6865;52.552;13.434;2023-12-14T11:50:42;4.90;99.90
13589;DHT22;6865;52.552;13.434;2023-12-14T11:53:10;4.80;99.90
13589;DHT22;6865;52.552;13.434;2023-12-14T11:55:42;4.80;99.90
13589;DHT22;6865;52.552;13.434;2023-12-14T11:58:12;4.90;99.90
13589;DHT22;6865;52.552;13.434;2023-12-14T12:00:40;4.90;99.90
13589;DHT22;6865;52.552;13.434;2023-12-14T12:03:14;4.90;99.90
13589;DHT22;6865;52.552;13.434;2023-12-14T12:05:47;4.90;99.90
13589;DHT22;6865;52.552;13.434;2023-12-14T12:08:16;4.90;99.90
13589;DHT22;6865;52.552;13.434;2023-12-14T12:10:43;4.90;99.90
13589;DHT22;6865;52.552;13.434;2023-12-14T12:13:18;4.90;99.90
13589;DHT22;6865;52.552;13.434;2023-12-14T12:15:46;4.90;99.90
13589;DHT22;6865;52.552;13.434;2023-12-14T12:18:14;4.90;99.90
13589;DHT22;6865;52.552;13.434;2023-12-14T12:20:41;4.70;99.90
13589;DHT22;6865;52.552;13.434;2023-12-14T12:23:09;5.00;99.90
13589;DHT22;6865;52.552;13.434;2023-12-14T12:25:36;5.00;99.90
13589;DHT22;6865;52.552;13.434;2023-12-14T12:28:03;5.00;99.90
13589;DHT22;6865;52.552;13.434;2023-12-14T12:30:33;5.00;99.90
13589;DHT22;6865;52.552;13.434;2023-12-14T12:33:03;5.00;99.90
13589;DHT22;6865;52.552;13.434;2023-12-14T12:35:30;5.00;99.90
13589;DHT22;6865;52.552;13.434;2023-12-14T12:37:59;5.00;99.90
13589;DHT22;6865;52.552;13.434;2023-12-14T12:40:26;5.00;99.90
13589;DHT22;6865;52.552;13.434;2023-12-14T12:42:53;5.00;99.90
13589;DHT22;6865;52.552;13.434;2023-12-14T12:45:19;4.90;99.90
13589;DHT22;6865;52.552;13.434;2023-12-14T12:47:49;4.90;99.90
13589;DHT22;6865;52.552;13.434;2023-12-14T12:50:16;4.90;99.90
13589;DHT22;6865;52.552;13.434;2023-12-14T12:52:44;4.90;99.90
13589;DHT22;6865;52.552;13.434;2023-12-14T12:55:12;4.80;99.90
13589;DHT22;6865;52.552;13.434;2023-12-14T12:57:39;4.80;99.90
13589;DHT22;6865;52.552;13.434;2023-12-14T13:00:08;4.80;99.90
13589;DHT22;6865;52.552;13.434;2023-12-14T13:02:42;4.80;99.90
13589;DHT22;6865;52.552;13.434;2023-12-14T13:05:09;4.80;99.90
13589;DHT22;6865;52.552;13.434;2023-12-14T13:07:44;4.80;99.90
13589;DHT22;6865;52.552;13.434;2023-12-14T13:10:12;4.70;99.90
13589;DHT22;6865;52.552;13.434;2023-12-14T13:12:54;4.70;99.90
13589;DHT22;6865;52.552;13.434;2023-12-14T13:15:22;4.70;99.90
13589;DHT22;6865;52.552;13.434;2023-12-14T13:17:53;4.70;99.90
13589;DHT22;6865;52.552;13.434;2023-12-14T13:20:19;4.60;99.90
13589;DHT22;6865;52.552;13.434;2023-12-14T13:22:46;4.50;99.90
13589;DHT22;6865;52.552;13.434;2023-12-14T13:25:13;4.60;99.90
13589;DHT22;6865;52.552;13.434;2023-12-14T13:27:40;4.60;99.90
13589;DHT22;6865;52.552;13.434;2023-12-14T13:30:07;4.60;99.90
13589;DHT22;6865;52.552;13.434;2023-12-14T13:32:35;4.50;99.90
13589;DHT22;6865;52.552;13.434;2023-12-14T13:35:02;4.80;99.90
13589;DHT22;6865;52.552;13.434;2023-12-14T13:37:29;4.50;99.90
13589;DHT22;6865;52.552;13.434;2023-12-14T13:39:56;4.60;99.90
13589;DHT22;6865;52.552;13.434;2023-12-14T13:42:23;4.70;99.90
13589;DHT22;6865;52.552;13.434;2023-12-14T13:44:49;4.50;99.90
13589;DHT22;6865;52.552;13.434;2023-12-14T13:47:16;4.50;99.90
13589;DHT22;6865;52.552;13.434;2023-12-14T13:49:43;4.50;99.90
13589;DHT22;6865;52.552;13.434;2023-12-14T13:52:10;4.40;99.90
13589;DHT22;6865;52.552;13.434;2023-12-14T13:54:37;4.80;99.90
13589;DHT22;6865;52.552;13.434;2023-12-14T13:57:03;4.40;99.90
13589;DHT22;6865;52.552;13.434;2023-12-14T13:59:30;4.50;99.90
13589;DHT22;6865;52.552;13.434;2023-12-14T14:01:57;3.70;99.90
13589;DHT22;6865;52.552;13.434;2023-12-14T14:04:24;4.50;99.90
13589;DHT22;6865;52.552;13.434;2023-12-14T14:06:53;4.50;99.90
13589;DHT22;6865;52.552;13.434;2023-12-14T14:09:20;4.40;99.90
13589;DHT22;6865;52.552;13.434;2023-12-14T14:11:47;4.40;99.90
13589;DHT22;6865;52.552;13.434;2023-12-14T14:14:16;4.40;99.90
13589;DHT22;6865;52.552;13.434;2023-12-14T14:16:42;4.10;99.90
13589;DHT22;6865;52.552;13.434;2023-12-14T14:19:09;4.40;99.90
13589;DHT22;6865;52.552;13.434;2023-12-14T14:21:36;4.70;99.90
13589;DHT22;6865;52.552;13.434;2023-12-14T14:24:03;4.30;99.90
13589;DHT22;6865;52.552;13.434;2023-12-14T14:26:30;4.30;99.90
13589;DHT22;6865;52.552;13.434;2023-12-14T14:28:56;4.20;99.90
13589;DHT22;6865;52.552;13.434;2023-12-14T14:31:27;4.30;99.90
13589;DHT22;6865;52.552;13.434;2023-12-14T14:33:58;4.20;99.90
13589;DHT22;6865;52.552;13.434;2023-12-14T14:36:27;4.20;99.90
13589;DHT22;6865;52.552;13.434;2023-12-14T14:38:53;4.20;99.90
13589;DHT22;6865;52.552;13.434;2023-12-14T14:41:21;4.20;99.90
13589;DHT22;6865;52.552;13.434;2023-12-14T14:43:48;3.60;99.90
13589;DHT22;6865;52.552;13.434;2023-12-14T14:46:15;4.20;99.90
13589;DHT22;6865;52.552;13.434;2023-12-14T14:48:42;4.20;99.90
13589;DHT22;6865;52.552;13.434;2023-12-14T14:51:09;4.20;99.90
13589;DHT22;6865;52.552;13.434;2023-12-14T14:53:36;4.30;99.90
13589;DHT22;6865;52.552;13.434;2023-12-14T14:56:04;4.30;99.90
13589;DHT22;6865;52.552;13.434;2023-12-14T14:58:31;4.40;99.90
13589;DHT22;6865;52.552;13.434;2023-12-14T15:00:58;4.10;99.90
13589;DHT22;6865;52.552;13.434;2023-12-14T15:03:25;4.40;99.90
13589;DHT22;6865;52.552;13.434;2023-12-14T15:05:51;4.40;99.90
13589;DHT22;6865;52.552;13.434;2023-12-14T15:08:18;4.40;99.90
13589;DHT22;6865;52.552;13.434;2023-12-14T15:10:45;4.20;99.90
13589;DHT22;6865;52.552;13.434;2023-12-14T15:13:12;4.50;99.90
13589;DHT22;6865;52.552;13.434;2023-12-14T15:15:41;4.40;99.90
13589;DHT22;6865;52.552;13.434;2023-12-14T15:18:08;4.30;99.90
13589;DHT22;6865;52.552;13.434;2023-12-14T15:20:36;4.40;99.90
13589;DHT22;6865;52.552;13.434;2023-12-14T15:23:03;4.40;99.90
13589;DHT22;6865;52.552;13.434;2023-12-14T15:25:32;4.40;99.90
13589;DHT22;6865;52.552;13.434;2023-12-14T15:27:59;4.30;99.90
13589;DHT22;6865;52.552;13.434;2023-12-14T15:30:25;4.40;99.90
13589;DHT22;6865;52.552;13.434;2023-12-14T15:32:52;4.40;99.90
13589;DHT22;6865;52.552;13.434;2023-12-14T15:35:19;4.40;99.90
13589;DHT22;6865;52.552;13.434;2023-12-14T15:37:47;4.40;99.90
13589;DHT22;6865;52.552;13.434;2023-12-14T15:40:13;4.40;99.90
13589;DHT22;6865;52.552;13.434;2023-12-14T15:42:40;4.40;99.90
13589;DHT22;6865;52.552;13.434;2023-12-14T15:45:08;4.30;99.90
13589;DHT22;6865;52.552;13.434;2023-12-14T15:47:36;4.30;99.90
13589;DHT22;6865;52.552;13.434;2023-12-14T15:50:03;4.30;99.90
13589;DHT22;6865;52.552;13.434;2023-12-14T15:52:30;4.30;99.90
13589;DHT22;6865;52.552;13.434;2023-12-14T15:54:57;4.30;99.90